createdAt,value
2023-11-10T00:00:31.463Z,0.90
2023-11-10T00:02:59.562Z,0.80
2023-11-10T00:05:27.383Z,1.40
2023-11-10T00:07:55.473Z,1.10
2023-11-10T00:10:23.348Z,1.08
2023-11-10T00:12:50.613Z,1.85
2023-11-10T00:15:18.757Z,1.33
2023-11-10T00:17:46.669Z,1.50
2023-11-10T00:20:15.941Z,1.35
2023-11-10T00:22:42.847Z,0.90
2023-11-10T00:25:10.269Z,1.48
2023-11-10T00:27:37.380Z,1.30
2023-11-10T00:30:04.635Z,1.15
2023-11-10T00:32:31.860Z,1.10
2023-11-10T00:35:01.001Z,1.20
2023-11-10T00:37:27.985Z,1.77
2023-11-10T00:39:58.935Z,1.45
2023-11-10T00:42:26.217Z,1.30
2023-11-10T00:44:54.648Z,1.10
2023-11-10T00:47:21.460Z,1.25
2023-11-10T00:49:48.807Z,1.13
2023-11-10T00:52:16.075Z,1.05
2023-11-10T00:54:42.991Z,1.30
2023-11-10T00:57:10.139Z,1.08
2023-11-10T00:59:37.073Z,1.08
2023-11-10T01:02:04.317Z,1.20
2023-11-10T01:04:31.354Z,1.10
2023-11-10T01:06:58.329Z,0.88
2023-11-10T01:09:25.313Z,0.88
2023-11-10T01:11:52.401Z,1.00
2023-11-10T01:14:22.614Z,1.55
2023-11-10T01:16:49.959Z,1.20
2023-11-10T01:19:19.240Z,1.13
2023-11-10T01:21:48.291Z,1.05
2023-11-10T01:24:17.791Z,1.25
2023-11-10T01:26:44.832Z,2.00
2023-11-10T01:29:11.968Z,1.20
2023-11-10T01:31:40.987Z,0.90
2023-11-10T01:34:09.973Z,1.10
2023-11-10T01:36:37.207Z,0.77
2023-11-10T01:39:09.357Z,1.15
2023-11-10T01:41:40.704Z,0.95
2023-11-10T01:44:08.157Z,1.45
2023-11-10T01:46:42.655Z,1.00
2023-11-10T01:49:12.634Z,1.45
2023-11-10T01:51:39.861Z,1.35
2023-11-10T01:54:09.825Z,0.90
2023-11-10T01:59:09.752Z,0.80
2023-11-10T02:01:37.886Z,1.30
2023-11-10T02:04:06.241Z,1.05
2023-11-10T02:06:33.428Z,1.08
2023-11-10T02:09:03.837Z,2.10
2023-11-10T02:11:32.623Z,2.50
2023-11-10T02:14:06.754Z,1.80
2023-11-10T02:16:37.923Z,1.38
2023-11-10T02:19:07.254Z,1.33
2023-11-10T02:21:35.025Z,1.30
2023-11-10T02:24:09.259Z,1.75
2023-11-10T02:26:36.524Z,1.23
2023-11-10T02:29:03.504Z,1.20
2023-11-10T02:31:30.796Z,1.42
2023-11-10T02:33:59.349Z,1.80
2023-11-10T02:36:30.433Z,1.40
2023-11-10T02:38:58.560Z,1.45
2023-11-10T02:41:25.701Z,1.10
2023-11-10T02:43:53.061Z,0.88
2023-11-10T02:46:21.018Z,1.13
2023-11-10T02:48:47.996Z,1.35
2023-11-10T02:51:16.247Z,2.83
2023-11-10T02:53:43.365Z,1.00
2023-11-10T02:56:10.590Z,1.77
2023-11-10T02:58:38.602Z,1.13
2023-11-10T03:01:05.456Z,1.48
2023-11-10T03:03:33.520Z,0.80
2023-11-10T03:06:01.178Z,1.98
2023-11-10T03:08:27.942Z,2.42
2023-11-10T03:10:54.907Z,1.08
2023-11-10T03:13:22.112Z,0.82
2023-11-10T03:15:49.197Z,0.90
2023-11-10T03:18:17.147Z,1.13
2023-11-10T03:20:45.705Z,1.13
2023-11-10T03:23:15.612Z,1.20
2023-11-10T03:28:11.617Z,1.20
2023-11-10T03:30:38.374Z,0.88
2023-11-10T03:33:05.453Z,1.25
2023-11-10T03:35:32.485Z,1.05
2023-11-10T03:37:59.508Z,0.88
2023-11-10T03:40:26.608Z,0.85
2023-11-10T03:42:53.681Z,0.98
2023-11-10T03:45:20.668Z,0.70
2023-11-10T03:47:47.788Z,1.02
2023-11-10T03:50:14.804Z,1.40
2023-11-10T03:52:43.580Z,1.15
2023-11-10T03:55:10.792Z,0.93
2023-11-10T03:57:38.038Z,1.10
2023-11-10T04:00:06.056Z,1.02
2023-11-10T04:02:32.903Z,1.08
2023-11-10T04:04:59.996Z,0.95
2023-11-10T04:07:27.073Z,1.30
2023-11-10T04:09:54.030Z,1.20
2023-11-10T04:12:24.148Z,1.70
2023-11-10T04:14:51.378Z,1.13
2023-11-10T04:17:19.397Z,1.10
2023-11-10T04:19:46.426Z,1.00
2023-11-10T04:22:13.404Z,1.38
2023-11-10T04:24:41.920Z,1.15
2023-11-10T04:27:09.564Z,1.13
2023-11-10T04:29:37.381Z,1.77
2023-11-10T04:32:05.708Z,1.08
2023-11-10T04:34:35.227Z,2.55
2023-11-10T04:37:02.361Z,1.33
2023-11-10T04:39:29.401Z,1.10
2023-11-10T04:41:56.296Z,1.40
2023-11-10T04:44:24.473Z,1.50
2023-11-10T04:46:52.421Z,1.38
2023-11-10T04:49:20.371Z,1.00
2023-11-10T04:51:47.390Z,1.08
2023-11-10T04:54:15.301Z,0.90
2023-11-10T04:56:46.261Z,1.27
2023-11-10T04:59:13.940Z,1.00
2023-11-10T05:01:42.310Z,1.17
2023-11-10T05:04:13.728Z,1.70
2023-11-10T05:06:42.124Z,1.20
2023-11-10T05:09:10.502Z,1.60
2023-11-10T05:11:37.852Z,1.30
2023-11-10T05:14:04.792Z,1.40
2023-11-10T05:16:31.886Z,2.17
2023-11-10T05:19:01.752Z,1.38
2023-11-10T05:23:57.039Z,1.30
2023-11-10T05:26:26.416Z,0.95
2023-11-10T05:28:54.369Z,1.65
2023-11-10T05:31:21.810Z,1.30
2023-11-10T05:33:49.111Z,1.23
2023-11-10T05:36:16.057Z,1.10
2023-11-10T05:38:45.110Z,1.10
2023-11-10T05:41:12.735Z,1.58
2023-11-10T05:43:40.734Z,1.20
2023-11-10T05:46:07.925Z,1.20
2023-11-10T05:48:35.118Z,1.15
2023-11-10T05:51:04.662Z,2.08
2023-11-10T05:53:33.979Z,1.42
2023-11-10T05:56:01.978Z,2.30
2023-11-10T05:58:28.873Z,1.50
2023-11-10T06:00:55.724Z,1.77
2023-11-10T06:03:28.614Z,1.20
2023-11-10T06:05:55.867Z,1.20
2023-11-10T06:08:26.193Z,1.70
2023-11-10T06:10:54.413Z,1.38
2023-11-10T06:13:22.249Z,1.55
2023-11-10T06:15:49.253Z,1.73
2023-11-10T06:18:16.305Z,1.30
2023-11-10T06:20:43.266Z,1.40
2023-11-10T06:23:12.421Z,1.45
2023-11-10T06:25:39.506Z,2.38
2023-11-10T06:28:06.512Z,1.20
2023-11-10T06:30:33.394Z,1.42
2023-11-10T06:33:00.670Z,1.58
2023-11-10T06:35:33.309Z,1.33
2023-11-10T06:38:02.417Z,1.40
2023-11-10T06:40:30.589Z,1.38
2023-11-10T06:42:59.836Z,1.73
2023-11-10T06:45:30.544Z,1.98
2023-11-10T06:48:03.999Z,2.15
2023-11-10T06:50:32.796Z,1.45
2023-11-10T06:53:00.034Z,1.50
2023-11-10T06:55:27.061Z,1.83
2023-11-10T06:57:56.110Z,2.80
2023-11-10T07:00:28.026Z,2.22
2023-11-10T07:02:57.922Z,1.83
2023-11-10T07:05:27.602Z,2.80
2023-11-10T07:07:55.662Z,2.42
2023-11-10T07:10:22.778Z,2.03
2023-11-10T07:12:49.736Z,2.55
2023-11-10T07:15:16.918Z,1.83
2023-11-10T07:17:44.180Z,1.73
2023-11-10T07:20:11.632Z,2.08
2023-11-10T07:22:39.890Z,2.20
2023-11-10T07:25:11.562Z,1.58
2023-11-10T07:27:38.603Z,3.17
2023-11-10T07:30:07.154Z,1.38
2023-11-10T07:32:34.906Z,1.65
2023-11-10T07:35:04.784Z,1.50
2023-11-10T07:40:06.416Z,1.55
2023-11-10T07:42:34.059Z,1.63
2023-11-10T07:45:01.046Z,3.67
2023-11-10T07:47:29.318Z,1.48
2023-11-10T07:49:56.437Z,2.25
2023-11-10T07:52:25.369Z,1.00
2023-11-10T07:54:58.127Z,1.03
2023-11-10T07:57:29.304Z,1.17
2023-11-10T07:59:56.367Z,2.30
2023-11-10T08:02:23.441Z,1.40
2023-11-10T08:04:50.674Z,1.50
2023-11-10T08:07:17.523Z,1.30
2023-11-10T08:09:44.705Z,1.42
2023-11-10T08:12:11.636Z,0.95
2023-11-10T08:14:38.667Z,1.45
2023-11-10T08:17:08.308Z,3.15
2023-11-10T08:19:35.391Z,1.33
2023-11-10T08:22:02.477Z,1.45
2023-11-10T08:24:31.789Z,1.30
2023-11-10T08:26:59.572Z,1.23
2023-11-10T08:29:27.191Z,1.25
2023-11-10T08:31:54.395Z,1.17
2023-11-10T08:34:22.574Z,1.60
2023-11-10T08:36:52.623Z,1.52
2023-11-10T08:39:20.075Z,1.95
2023-11-10T08:41:50.493Z,1.10
2023-11-10T08:44:17.951Z,1.73
2023-11-10T08:46:46.020Z,2.05
2023-11-10T08:49:13.539Z,1.30
2023-11-10T08:51:41.560Z,1.73
2023-11-10T08:54:09.412Z,1.60
2023-11-10T08:56:36.647Z,1.48
2023-11-10T08:59:06.811Z,1.40
2023-11-10T09:01:37.990Z,1.60
2023-11-10T09:04:15.138Z,1.48
2023-11-10T09:06:49.373Z,1.50
2023-11-10T09:09:18.081Z,1.67
2023-11-10T09:11:45.039Z,1.48
2023-11-10T09:14:12.151Z,1.63
2023-11-10T09:16:39.247Z,1.00
2023-11-10T09:19:07.470Z,1.00
2023-11-10T09:21:34.457Z,1.40
2023-11-10T09:24:03.318Z,1.00
2023-11-10T09:26:30.343Z,1.25
2023-11-10T09:28:57.227Z,0.98
2023-11-10T09:31:24.090Z,1.15
2023-11-10T09:33:54.214Z,1.65
2023-11-10T09:36:21.310Z,1.10
2023-11-10T09:38:48.303Z,1.52
2023-11-10T09:41:16.125Z,3.45
2023-11-10T09:43:47.024Z,0.93
2023-11-10T09:46:17.347Z,1.10
2023-11-10T09:48:45.320Z,1.10
2023-11-10T09:51:13.717Z,1.30
2023-11-10T09:53:45.594Z,0.90
2023-11-10T09:56:13.887Z,1.20
2023-11-10T09:58:43.070Z,1.40
2023-11-10T10:01:10.034Z,1.00
2023-11-10T10:03:38.156Z,1.20
2023-11-10T10:06:07.956Z,1.40
2023-11-10T10:08:36.015Z,1.50
2023-11-10T10:11:03.651Z,2.70
2023-11-10T10:13:32.056Z,1.08
2023-11-10T10:16:12.356Z,2.08
2023-11-10T10:18:41.046Z,1.38
2023-11-10T10:21:08.679Z,1.38
2023-11-10T10:23:36.403Z,0.95
2023-11-10T10:26:10.559Z,0.93
2023-11-10T10:28:39.010Z,1.35
2023-11-10T10:31:07.374Z,1.17
2023-11-10T10:33:35.426Z,1.75
2023-11-10T10:36:04.543Z,2.00
2023-11-10T10:38:34.464Z,1.45
2023-11-10T10:43:33.549Z,1.80
2023-11-10T10:46:08.813Z,1.33
2023-11-10T10:48:38.785Z,2.28
2023-11-10T10:51:07.605Z,1.65
2023-11-10T10:53:36.049Z,2.17
2023-11-10T10:56:04.192Z,1.70
2023-11-10T10:58:33.129Z,2.15
2023-11-10T11:01:04.286Z,2.30
2023-11-10T11:04:05.675Z,2.08
2023-11-10T11:06:35.816Z,2.10
2023-11-10T11:09:07.964Z,2.90
2023-11-10T11:11:50.433Z,1.90
2023-11-10T11:14:30.620Z,2.08
2023-11-10T11:17:23.336Z,2.78
2023-11-10T11:19:50.925Z,2.17
2023-11-10T11:22:18.252Z,2.70
2023-11-10T11:24:46.313Z,2.10
2023-11-10T11:27:25.513Z,1.83
2023-11-10T11:29:57.153Z,1.95
2023-11-10T11:32:27.041Z,1.58
2023-11-10T11:37:21.539Z,2.00
2023-11-10T11:39:54.289Z,2.10
2023-11-10T11:42:23.546Z,3.22
2023-11-10T11:44:59.895Z,1.92
2023-11-10T11:47:33.366Z,1.52
2023-11-10T11:50:00.857Z,2.47
2023-11-10T11:52:28.703Z,1.00
2023-11-10T11:54:55.921Z,1.73
2023-11-10T11:57:25.825Z,1.65
2023-11-10T11:59:53.165Z,1.30
2023-11-10T12:02:20.679Z,1.20
2023-11-10T12:04:47.721Z,1.25
2023-11-10T12:07:17.447Z,2.25
2023-11-10T12:09:44.269Z,1.63
2023-11-10T12:12:11.524Z,1.10
2023-11-10T12:14:38.922Z,0.90
2023-11-10T12:17:07.199Z,1.35
2023-11-10T12:19:34.169Z,1.38
2023-11-10T12:22:01.251Z,1.20
2023-11-10T12:24:31.264Z,1.95
2023-11-10T12:27:00.661Z,0.80
2023-11-10T12:29:30.859Z,0.98
2023-11-10T12:31:58.587Z,0.90
2023-11-10T12:34:28.812Z,1.00
2023-11-10T12:36:59.336Z,0.63
2023-11-10T12:39:26.633Z,1.15
2023-11-10T12:41:53.775Z,0.93
2023-11-10T12:44:23.144Z,0.60
2023-11-10T12:46:58.662Z,0.80
2023-11-10T12:49:30.920Z,0.75
2023-11-10T12:52:11.301Z,0.73
2023-11-10T12:54:46.113Z,0.80
2023-11-10T12:57:13.093Z,0.60
2023-11-10T12:59:40.190Z,0.65
2023-11-10T13:02:08.529Z,0.80
2023-11-10T13:04:35.703Z,0.90
2023-11-10T13:07:02.975Z,0.70
2023-11-10T13:09:31.872Z,0.73
2023-11-10T13:11:59.208Z,0.77
2023-11-10T13:14:26.320Z,0.73
2023-11-10T13:16:53.378Z,0.82
2023-11-10T13:19:20.658Z,0.82
2023-11-10T13:21:47.759Z,1.30
2023-11-10T13:24:14.722Z,1.80
2023-11-10T13:26:42.413Z,1.10
2023-11-10T13:29:10.315Z,0.70
2023-11-10T13:31:38.355Z,1.00
2023-11-10T13:34:09.387Z,1.10
2023-11-10T13:36:36.760Z,0.88
2023-11-10T13:39:03.998Z,1.48
2023-11-10T13:41:37.004Z,1.30
2023-11-10T13:46:38.401Z,1.48
2023-11-10T13:49:06.088Z,1.45
2023-11-10T13:51:36.271Z,1.65
2023-11-10T13:54:05.350Z,1.60
2023-11-10T13:56:35.142Z,2.05
2023-11-10T14:01:31.864Z,1.73
2023-11-10T14:03:59.106Z,1.65
2023-11-10T14:06:30.438Z,2.42
2023-11-10T14:08:58.045Z,1.92
2023-11-10T14:11:26.784Z,2.17
2023-11-10T14:13:53.754Z,2.17
2023-11-10T14:16:21.726Z,1.65
2023-11-10T14:18:49.913Z,1.85
2023-11-10T14:21:17.554Z,1.85
2023-11-10T14:23:46.018Z,2.10
2023-11-10T14:26:15.223Z,2.92
2023-11-10T14:28:42.175Z,1.85
2023-11-10T14:31:09.517Z,2.38
2023-11-10T14:33:36.697Z,2.03
2023-11-10T14:36:05.394Z,2.20
2023-11-10T14:38:41.598Z,2.22
2023-11-10T14:41:14.586Z,2.35
2023-11-10T14:43:42.195Z,2.38
2023-11-10T14:46:10.528Z,2.75
2023-11-10T14:48:46.567Z,3.15
2023-11-10T14:51:23.520Z,3.05
2023-11-10T14:53:50.890Z,2.08
2023-11-10T14:56:17.899Z,3.47
2023-11-10T14:58:45.120Z,2.90
2023-11-10T15:01:13.767Z,3.22
2023-11-10T15:03:48.116Z,2.80
2023-11-10T15:06:17.613Z,2.90
2023-11-10T15:08:45.094Z,2.45
2023-11-10T15:11:14.267Z,3.90
2023-11-10T15:13:41.680Z,3.22
2023-11-10T15:16:10.090Z,4.78
2023-11-10T15:18:37.776Z,2.70
2023-11-10T15:21:04.846Z,2.28
2023-11-10T15:23:31.763Z,2.22
2023-11-10T15:26:00.068Z,2.17
2023-11-10T15:28:28.474Z,3.03
2023-11-10T15:30:55.665Z,2.78
2023-11-10T15:33:22.819Z,2.17
2023-11-10T15:35:51.588Z,2.63
2023-11-10T15:38:20.163Z,2.10
2023-11-10T15:40:49.768Z,2.20
2023-11-10T15:43:19.531Z,2.15
2023-11-10T15:45:49.340Z,2.47
2023-11-10T15:48:16.559Z,1.83
2023-11-10T15:50:43.855Z,2.45
2023-11-10T15:53:11.397Z,3.10
2023-11-10T15:55:38.504Z,3.67
2023-11-10T15:58:06.728Z,2.75
2023-11-10T16:00:34.407Z,3.30
2023-11-10T16:03:02.195Z,3.33
2023-11-10T16:05:29.517Z,2.75
2023-11-10T16:07:56.778Z,2.60
2023-11-10T16:10:25.230Z,3.92
2023-11-10T16:12:53.497Z,2.92
2023-11-10T16:15:20.567Z,3.25
2023-11-10T16:17:48.433Z,2.65
2023-11-10T16:20:15.890Z,3.28
2023-11-10T16:22:44.208Z,3.45
2023-11-10T16:25:11.716Z,2.80
2023-11-10T16:27:41.521Z,2.75
2023-11-10T16:32:37.125Z,2.67
2023-11-10T16:35:07.189Z,3.83
2023-11-10T16:37:35.777Z,4.13
2023-11-10T16:40:02.882Z,4.35
2023-11-10T16:42:29.894Z,4.35
2023-11-10T16:44:59.202Z,3.65
2023-11-10T16:47:26.788Z,3.53
2023-11-10T16:49:54.391Z,3.97
2023-11-10T16:52:21.333Z,4.43
2023-11-10T16:54:49.040Z,5.55
2023-11-10T16:57:16.225Z,4.60
2023-11-10T16:59:43.235Z,5.15
2023-11-10T17:02:10.500Z,5.45
2023-11-10T17:04:38.116Z,7.30
2023-11-10T17:07:06.168Z,5.53
2023-11-10T17:09:34.458Z,4.50
2023-11-10T17:12:01.399Z,5.85
2023-11-10T17:14:28.431Z,5.50
2023-11-10T17:16:55.839Z,6.20
2023-11-10T17:19:22.994Z,3.95
2023-11-10T17:21:50.060Z,3.83
2023-11-10T17:24:17.289Z,4.68
2023-11-10T17:26:44.663Z,4.30
2023-11-10T17:29:11.778Z,4.05
2023-11-10T17:31:38.853Z,4.65
2023-11-10T17:34:09.001Z,4.22
2023-11-10T17:36:36.107Z,5.10
2023-11-10T17:39:03.185Z,4.13
2023-11-10T17:41:30.146Z,4.57
2023-11-10T17:43:58.051Z,3.83
2023-11-10T17:46:25.205Z,5.35
2023-11-10T17:48:52.502Z,3.85
2023-11-10T17:51:22.385Z,4.20
2023-11-10T17:53:49.455Z,2.95
2023-11-10T17:56:16.532Z,2.58
2023-11-10T17:58:43.506Z,2.90
2023-11-10T18:01:10.410Z,4.63
2023-11-10T18:03:37.736Z,2.72
2023-11-10T18:06:06.026Z,3.15
2023-11-10T18:08:34.567Z,2.60
2023-11-10T18:11:01.672Z,2.65
2023-11-10T18:13:28.780Z,2.15
2023-11-10T18:15:55.706Z,2.40
2023-11-10T18:18:22.836Z,2.50
2023-11-10T18:20:50.236Z,2.75
2023-11-10T18:23:17.220Z,1.33
2023-11-10T18:25:45.012Z,1.15
2023-11-10T18:28:13.043Z,1.70
2023-11-10T18:30:39.978Z,1.50
2023-11-10T18:33:07.729Z,1.52
2023-11-10T18:35:34.506Z,1.40
2023-11-10T18:38:01.596Z,1.60
2023-11-10T18:40:29.634Z,1.77
2023-11-10T18:42:57.322Z,2.50
2023-11-10T18:45:24.846Z,2.05
2023-11-10T18:47:52.025Z,2.60
2023-11-10T18:50:21.824Z,2.72
2023-11-10T18:55:16.628Z,3.08
2023-11-10T18:57:43.703Z,3.75
2023-11-10T19:00:11.172Z,4.47
2023-11-10T19:02:38.607Z,4.35
2023-11-10T19:05:05.856Z,4.65
2023-11-10T19:07:35.705Z,3.80
2023-11-10T19:12:32.479Z,5.47
2023-11-10T19:14:59.565Z,7.40
2023-11-10T19:17:27.215Z,8.32
2023-11-10T19:19:54.229Z,6.60
2023-11-10T19:22:21.233Z,6.38
2023-11-10T19:24:48.341Z,4.93
2023-11-10T19:27:15.276Z,4.15
2023-11-10T19:29:42.274Z,4.60
2023-11-10T19:32:11.187Z,5.32
2023-11-10T19:34:40.924Z,4.37
2023-11-10T19:37:08.030Z,6.28
2023-11-10T19:39:34.995Z,5.25
2023-11-10T19:42:03.362Z,4.28
2023-11-10T19:44:30.339Z,4.25
2023-11-10T19:46:57.523Z,5.95
2023-11-10T19:49:24.511Z,4.38
2023-11-10T19:56:53.130Z,4.07
2023-11-10T19:59:21.917Z,3.83
2023-11-10T20:01:49.956Z,4.13
2023-11-10T20:04:17.160Z,3.88
2023-11-10T20:06:44.020Z,4.97
2023-11-10T20:09:14.951Z,4.15
2023-11-10T20:11:44.939Z,3.90
2023-11-10T20:14:12.187Z,4.18
2023-11-10T20:16:39.179Z,5.60
2023-11-10T20:19:06.301Z,5.20
2023-11-10T20:21:33.273Z,5.53
2023-11-10T20:24:00.410Z,7.32
2023-11-10T20:26:27.790Z,6.72
2023-11-10T20:28:54.856Z,6.28
2023-11-10T20:31:21.973Z,7.57
2023-11-10T20:33:48.936Z,6.78
2023-11-10T20:36:15.942Z,8.55
2023-11-10T20:38:43.051Z,7.88
2023-11-10T20:41:11.247Z,7.57
2023-11-10T20:43:39.792Z,9.02
2023-11-10T20:46:09.319Z,7.47
2023-11-10T20:48:36.503Z,6.65
2023-11-10T20:51:05.324Z,4.80
2023-11-10T20:53:36.103Z,3.95
2023-11-10T20:56:04.324Z,3.40
2023-11-10T20:58:32.278Z,3.90
2023-11-10T21:00:59.089Z,4.53
2023-11-10T21:03:26.571Z,4.65
2023-11-10T21:05:53.725Z,4.40
2023-11-10T21:08:21.044Z,4.70
2023-11-10T21:10:48.379Z,4.38
2023-11-10T21:13:15.950Z,4.25
2023-11-10T21:15:47.029Z,6.18
2023-11-10T21:18:15.316Z,3.33
2023-11-10T21:20:45.899Z,3.60
2023-11-10T21:23:16.333Z,3.70
2023-11-10T21:25:44.409Z,4.78
2023-11-10T21:28:12.517Z,4.47
2023-11-10T21:30:47.987Z,5.53
2023-11-10T21:33:15.150Z,5.72
2023-11-10T21:35:43.426Z,6.25
2023-11-10T21:38:11.732Z,6.50
2023-11-10T21:40:40.743Z,6.22
2023-11-10T21:43:12.580Z,5.80
2023-11-10T21:45:41.905Z,5.85
2023-11-10T21:48:15.685Z,6.40
2023-11-10T21:50:47.748Z,5.40
2023-11-10T21:53:15.482Z,5.03
2023-11-10T21:55:44.098Z,6.90
2023-11-10T21:58:14.107Z,4.43
2023-11-10T22:00:41.780Z,6.00
2023-11-10T22:03:09.327Z,4.95
2023-11-10T22:05:36.568Z,5.65
2023-11-10T22:08:03.553Z,4.90
2023-11-10T22:10:31.984Z,4.63
2023-11-10T22:12:59.239Z,4.18
2023-11-10T22:15:26.396Z,5.47
2023-11-10T22:17:53.580Z,4.45
2023-11-10T22:20:21.842Z,5.20
2023-11-10T22:22:48.737Z,4.47
2023-11-10T22:25:19.179Z,4.45
2023-11-10T22:27:46.207Z,4.15
2023-11-10T22:30:13.915Z,4.30
2023-11-10T22:32:42.564Z,4.05
2023-11-10T22:35:14.620Z,4.10
2023-11-10T22:37:41.731Z,3.75
2023-11-10T22:40:10.988Z,3.15
2023-11-10T22:42:41.158Z,3.30
2023-11-10T22:45:13.878Z,2.72
2023-11-10T22:47:42.492Z,3.30
2023-11-10T22:50:10.074Z,3.17
2023-11-10T22:52:37.006Z,3.55
2023-11-10T22:55:05.935Z,3.22
2023-11-10T22:57:33.228Z,2.93
2023-11-10T23:00:00.370Z,2.80
2023-11-10T23:02:32.464Z,1.95
2023-11-10T23:05:00.841Z,1.92
2023-11-10T23:07:27.937Z,1.85
2023-11-10T23:09:54.903Z,1.60
2023-11-10T23:12:26.520Z,1.45
2023-11-10T23:14:53.503Z,1.83
2023-11-10T23:17:20.555Z,1.20
2023-11-10T23:19:51.771Z,1.10
2023-11-10T23:22:18.749Z,0.90
2023-11-10T23:24:46.092Z,0.95
2023-11-10T23:27:13.975Z,1.85
2023-11-10T23:29:42.249Z,1.08
2023-11-10T23:32:10.927Z,2.08
2023-11-10T23:34:40.149Z,1.45
2023-11-10T23:37:10.128Z,1.50
2023-11-10T23:39:37.969Z,1.80
2023-11-10T23:42:05.140Z,1.50
2023-11-10T23:44:35.950Z,2.33
2023-11-10T23:47:06.783Z,1.90
2023-11-10T23:49:34.271Z,3.08
2023-11-10T23:52:01.368Z,2.80
2023-11-10T23:54:28.482Z,3.25
2023-11-10T23:56:55.690Z,3.58
2023-11-10T23:59:22.728Z,3.03
